sensor_id;sensor_type;location;lat;lon;timestamp;pressure;altitude;pressure_sealevel;temperature;humidity
37298;BME280;30517;51.932;4.278;2023-09-30T00:00:19;102515.25;;;17.11;62.25
37298;BME280;30517;51.932;4.278;2023-09-30T00:03:19;102437.13;;;16.71;62.63
37298;BME280;30517;51.932;4.278;2023-09-30T00:06:18;102418.53;;;16.54;62.46
37298;BME280;30517;51.932;4.278;2023-09-30T00:09:18;102231.44;;;15.35;62.85
37298;BME280;30517;51.932;4.278;2023-09-30T00:12:17;102278.47;;;15.75;62.61
37298;BME280;30517;51.932;4.278;2023-09-30T00:15:17;102491.28;;;17.02;62.69
37298;BME280;30517;51.932;4.278;2023-09-30T00:18:16;102204.84;;;15.09;62.74
37298;BME280;30517;51.932;4.278;2023-09-30T00:21:16;102392.81;;;16.22;62.52
37298;BME280;30517;51.932;4.278;2023-09-30T00:24:15;102526.84;;;16.89;63.10
37298;BME280;30517;51.932;4.278;2023-09-30T00:27:15;102439.00;;;16.36;63.23
37298;BME280;30517;51.932;4.278;2023-09-30T00:30:14;102465.56;;;16.59;62.95
37298;BME280;30517;51.932;4.278;2023-09-30T00:33:14;102375.09;;;15.98;62.67
37298;BME280;30517;51.932;4.278;2023-09-30T00:36:14;102209.28;;;15.12;62.70
37298;BME280;30517;51.932;4.278;2023-09-30T00:39:14;102531.31;;;16.80;63.27
37298;BME280;30517;51.932;4.278;2023-09-30T00:42:13;102532.16;;;16.76;63.27
37298;BME280;30517;51.932;4.278;2023-09-30T00:45:13;102543.75;;;16.86;62.90
37298;BME280;30517;51.932;4.278;2023-09-30T00:48:12;102495.78;;;16.65;62.72
37298;BME280;30517;51.932;4.278;2023-09-30T00:51:11;102542.84;;;16.86;62.97
37298;BME280;30517;51.932;4.278;2023-09-30T00:54:12;102542.84;;;16.72;62.85
37298;BME280;30517;51.932;4.278;2023-09-30T00:57:12;102523.28;;;16.68;62.94
37298;BME280;30517;51.932;4.278;2023-09-30T01:00:12;102589.06;;;16.88;62.76
37298;BME280;30517;51.932;4.278;2023-09-30T01:03:12;102213.66;;;14.82;63.01
37298;BME280;30517;51.932;4.278;2023-09-30T01:06:12;102313.88;;;15.47;62.63
37298;BME280;30517;51.932;4.278;2023-09-30T01:09:11;102446.97;;;16.09;63.00
37298;BME280;30517;51.932;4.278;2023-09-30T01:12:11;102534.84;;;16.59;62.50
37298;BME280;30517;51.932;4.278;2023-09-30T01:15:11;102554.41;;;16.78;63.21
37298;BME280;30517;51.932;4.278;2023-09-30T01:18:13;102532.19;;;16.64;62.74
37298;BME280;30517;51.932;4.278;2023-09-30T01:21:13;102486.91;;;16.38;63.16
37298;BME280;30517;51.932;4.278;2023-09-30T01:24:13;102375.97;;;15.71;62.93
37298;BME280;30517;51.932;4.278;2023-09-30T01:27:12;102454.06;;;16.05;62.72
37298;BME280;30517;51.932;4.278;2023-09-30T01:30:12;102546.38;;;16.57;62.85
37298;BME280;30517;51.932;4.278;2023-09-30T01:33:12;102566.78;;;16.76;62.80
37298;BME280;30517;51.932;4.278;2023-09-30T01:36:12;102322.72;;;15.34;63.15
37298;BME280;30517;51.932;4.278;2023-09-30T01:39:12;102552.63;;;16.74;63.30
37298;BME280;30517;51.932;4.278;2023-09-30T01:42:12;102569.47;;;16.76;62.83
37298;BME280;30517;51.932;4.278;2023-09-30T01:45:11;102345.78;;;15.54;62.76
37298;BME280;30517;51.932;4.278;2023-09-30T01:48:11;102534.84;;;16.56;62.84
37298;BME280;30517;51.932;4.278;2023-09-30T01:51:11;102484.22;;;16.23;62.73
37298;BME280;30517;51.932;4.278;2023-09-30T01:54:10;102425.69;;;16.04;62.90
37298;BME280;30517;51.932;4.278;2023-09-30T01:57:10;102559.72;;;16.72;62.76
37298;BME280;30517;51.932;4.278;2023-09-30T02:00:12;102498.44;;;16.42;62.71
37298;BME280;30517;51.932;4.278;2023-09-30T02:03:12;102438.06;;;16.25;62.62
37298;BME280;30517;51.932;4.278;2023-09-30T02:06:11;102416.78;;;16.14;62.01
37298;BME280;30517;51.932;4.278;2023-09-30T02:09:10;102554.41;;;16.94;62.36
37298;BME280;30517;51.932;4.278;2023-09-30T02:12:11;102407.03;;;16.06;62.14
37298;BME280;30517;51.932;4.278;2023-09-30T02:15:10;102508.22;;;16.78;62.02
37298;BME280;30517;51.932;4.278;2023-09-30T02:18:10;102536.59;;;16.97;62.29
37298;BME280;30517;51.932;4.278;2023-09-30T02:21:13;102503.75;;;16.71;61.94
37298;BME280;30517;51.932;4.278;2023-09-30T02:24:12;102540.19;;;16.89;61.89
37298;BME280;30517;51.932;4.278;2023-09-30T02:27:12;102532.16;;;16.95;62.06
37298;BME280;30517;51.932;4.278;2023-09-30T02:30:12;102525.09;;;16.80;62.22
37298;BME280;30517;51.932;4.278;2023-09-30T02:33:13;102445.16;;;16.38;61.86
37298;BME280;30517;51.932;4.278;2023-09-30T02:36:12;102535.75;;;16.91;61.72
37298;BME280;30517;51.932;4.278;2023-09-30T02:39:12;102545.50;;;16.90;62.44
37298;BME280;30517;51.932;4.278;2023-09-30T02:42:15;102522.41;;;16.89;61.67
37298;BME280;30517;51.932;4.278;2023-09-30T02:45:15;102404.38;;;15.97;62.03
37298;BME280;30517;51.932;4.278;2023-09-30T02:48:16;102409.72;;;16.18;61.43
37298;BME280;30517;51.932;4.278;2023-09-30T02:51:15;102492.22;;;16.61;62.05
37298;BME280;30517;51.932;4.278;2023-09-30T02:54:16;102196.84;;;14.83;61.89
37298;BME280;30517;51.932;4.278;2023-09-30T02:57:15;102539.28;;;16.96;61.65
37298;BME280;30517;51.932;4.278;2023-09-30T03:00:16;102528.63;;;16.94;61.87
37298;BME280;30517;51.932;4.278;2023-09-30T03:03:22;102517.97;;;16.94;61.57
37298;BME280;30517;51.932;4.278;2023-09-30T03:06:24;102518.84;;;16.84;61.81
37298;BME280;30517;51.932;4.278;2023-09-30T03:09:24;102497.56;;;16.78;61.46
37298;BME280;30517;51.932;4.278;2023-09-30T03:12:24;102504.66;;;16.64;61.61
37298;BME280;30517;51.932;4.278;2023-09-30T03:15:24;102466.50;;;16.48;61.76
37298;BME280;30517;51.932;4.278;2023-09-30T03:18:24;102260.69;;;15.38;61.68
37298;BME280;30517;51.932;4.278;2023-09-30T03:21:25;102271.34;;;15.40;61.75
37298;BME280;30517;51.932;4.278;2023-09-30T03:24:24;102544.59;;;16.93;61.50
37298;BME280;30517;51.932;4.278;2023-09-30T03:27:24;102199.50;;;14.95;61.61
37298;BME280;30517;51.932;4.278;2023-09-30T03:30:24;102526.84;;;16.84;62.03
37298;BME280;30517;51.932;4.278;2023-09-30T03:33:23;102453.16;;;16.46;61.44
37298;BME280;30517;51.932;4.278;2023-09-30T03:36:23;102509.97;;;16.87;61.36
37298;BME280;30517;51.932;4.278;2023-09-30T03:39:25;102493.13;;;16.66;61.52
37298;BME280;30517;51.932;4.278;2023-09-30T03:42:28;102466.47;;;16.60;61.21
37298;BME280;30517;51.932;4.278;2023-09-30T03:45:28;102479.78;;;16.63;61.22
37298;BME280;30517;51.932;4.278;2023-09-30T03:48:28;102417.69;;;16.00;61.76
37298;BME280;30517;51.932;4.278;2023-09-30T03:51:30;102390.19;;;15.99;61.63
37298;BME280;30517;51.932;4.278;2023-09-30T03:54:30;102533.97;;;16.85;61.79
37298;BME280;30517;51.932;4.278;2023-09-30T03:57:33;102268.66;;;15.24;61.47
37298;BME280;30517;51.932;4.278;2023-09-30T04:00:32;102414.13;;;16.16;61.35
37298;BME280;30517;51.932;4.278;2023-09-30T04:03:32;102280.16;;;15.25;61.12
37298;BME280;30517;51.932;4.278;2023-09-30T04:06:32;102441.66;;;16.29;61.90
37298;BME280;30517;51.932;4.278;2023-09-30T04:09:32;102483.34;;;16.62;61.37
37298;BME280;30517;51.932;4.278;2023-09-30T04:12:32;102500.22;;;16.67;61.05
37298;BME280;30517;51.932;4.278;2023-09-30T04:15:32;102536.63;;;16.84;61.37
37298;BME280;30517;51.932;4.278;2023-09-30T04:18:31;102543.72;;;16.68;61.20
37298;BME280;30517;51.932;4.278;2023-09-30T04:21:31;102509.06;;;16.71;61.33
37298;BME280;30517;51.932;4.278;2023-09-30T04:24:33;102541.09;;;16.88;61.23
37298;BME280;30517;51.932;4.278;2023-09-30T04:27:32;102339.63;;;15.75;61.30
37298;BME280;30517;51.932;4.278;2023-09-30T04:30:32;102549.06;;;16.94;61.33
37298;BME280;30517;51.932;4.278;2023-09-30T04:33:33;102459.38;;;16.45;61.02
37298;BME280;30517;51.932;4.278;2023-09-30T04:36:34;102493.09;;;16.63;60.99
37298;BME280;30517;51.932;4.278;2023-09-30T04:39:34;102494.91;;;16.53;61.45
37298;BME280;30517;51.932;4.278;2023-09-30T04:42:34;102358.25;;;15.70;61.22
37298;BME280;30517;51.932;4.278;2023-09-30T04:45:37;102548.16;;;16.92;60.97
37298;BME280;30517;51.932;4.278;2023-09-30T04:48:37;102501.09;;;16.58;61.21
37298;BME280;30517;51.932;4.278;2023-09-30T04:51:37;102564.16;;;16.87;61.30
37298;BME280;30517;51.932;4.278;2023-09-30T04:54:38;102498.44;;;16.46;61.57
37298;BME280;30517;51.932;4.278;2023-09-30T04:57:38;102501.09;;;16.63;60.85
37298;BME280;30517;51.932;4.278;2023-09-30T05:00:38;102484.22;;;16.49;61.15
37298;BME280;30517;51.932;4.278;2023-09-30T05:03:38;102184.44;;;14.70;60.93
37298;BME280;30517;51.932;4.278;2023-09-30T05:06:37;102566.84;;;16.86;61.31
37298;BME280;30517;51.932;4.278;2023-09-30T05:09:37;102493.13;;;16.51;61.42
37298;BME280;30517;51.932;4.278;2023-09-30T05:12:37;102546.41;;;16.81;61.12
37298;BME280;30517;51.932;4.278;2023-09-30T05:15:37;102542.81;;;16.73;61.39
37298;BME280;30517;51.932;4.278;2023-09-30T05:18:36;102556.16;;;16.84;61.43
37298;BME280;30517;51.932;4.278;2023-09-30T05:21:37;102554.41;;;16.78;61.05
37298;BME280;30517;51.932;4.278;2023-09-30T05:24:36;102531.28;;;16.68;61.28
37298;BME280;30517;51.932;4.278;2023-09-30T05:27:36;102526.84;;;16.73;61.16
37298;BME280;30517;51.932;4.278;2023-09-30T05:30:36;102514.41;;;16.57;61.42
37298;BME280;30517;51.932;4.278;2023-09-30T05:33:36;102549.03;;;16.68;61.43
37298;BME280;30517;51.932;4.278;2023-09-30T05:36:36;102525.97;;;16.59;61.28
37298;BME280;30517;51.932;4.278;2023-09-30T05:39:36;102526.84;;;16.53;61.02
37298;BME280;30517;51.932;4.278;2023-09-30T05:42:36;102539.31;;;16.53;61.62
37298;BME280;30517;51.932;4.278;2023-09-30T05:45:35;102569.47;;;16.73;61.52
37298;BME280;30517;51.932;4.278;2023-09-30T05:48:35;102499.34;;;16.39;61.03
37298;BME280;30517;51.932;4.278;2023-09-30T05:51:38;102564.16;;;16.64;61.62
37298;BME280;30517;51.932;4.278;2023-09-30T05:54:38;102566.84;;;16.81;61.11
37298;BME280;30517;51.932;4.278;2023-09-30T05:57:37;102202.06;;;14.52;60.67
37298;BME280;30517;51.932;4.278;2023-09-30T06:00:39;102547.25;;;16.57;61.44
37298;BME280;30517;51.932;4.278;2023-09-30T06:03:41;102485.13;;;16.15;61.31
37298;BME280;30517;51.932;4.278;2023-09-30T06:06:40;102537.53;;;16.58;61.25
37298;BME280;30517;51.932;4.278;2023-09-30T06:09:41;102565.06;;;16.83;60.69
37298;BME280;30517;51.932;4.278;2023-09-30T06:12:41;102519.75;;;16.43;61.23
37298;BME280;30517;51.932;4.278;2023-09-30T06:15:41;102563.25;;;16.54;61.64
37298;BME280;30517;51.932;4.278;2023-09-30T06:18:42;102432.78;;;15.88;61.06
37298;BME280;30517;51.932;4.278;2023-09-30T06:21:41;102553.47;;;16.44;61.36
37298;BME280;30517;51.932;4.278;2023-09-30T06:24:41;102590.78;;;16.59;61.61
37298;BME280;30517;51.932;4.278;2023-09-30T06:27:40;102573.91;;;16.51;61.25
37298;BME280;30517;51.932;4.278;2023-09-30T06:30:40;102598.78;;;16.63;60.96
37298;BME280;30517;51.932;4.278;2023-09-30T06:33:41;102565.91;;;16.41;60.86
37298;BME280;30517;51.932;4.278;2023-09-30T06:36:42;102611.22;;;16.59;61.41
37298;BME280;30517;51.932;4.278;2023-09-30T06:39:42;102612.13;;;16.58;60.97
37298;BME280;30517;51.932;4.278;2023-09-30T06:42:41;102595.22;;;16.47;61.14
37298;BME280;30517;51.932;4.278;2023-09-30T06:45:42;102573.91;;;16.45;61.01
37298;BME280;30517;51.932;4.278;2023-09-30T06:48:42;102594.34;;;16.48;61.54
37298;BME280;30517;51.932;4.278;2023-09-30T06:51:42;102611.22;;;16.59;60.94
37298;BME280;30517;51.932;4.278;2023-09-30T06:54:42;102623.66;;;16.58;61.05
37298;BME280;30517;51.932;4.278;2023-09-30T06:57:42;102485.91;;;15.61;61.34
37298;BME280;30517;51.932;4.278;2023-09-30T07:00:41;102649.41;;;16.47;61.48
37298;BME280;30517;51.932;4.278;2023-09-30T07:03:41;102593.41;;;16.18;61.17
37298;BME280;30517;51.932;4.278;2023-09-30T07:06:41;102645.84;;;16.54;61.02
37298;BME280;30517;51.932;4.278;2023-09-30T07:09:43;102644.06;;;16.46;61.32
37298;BME280;30517;51.932;4.278;2023-09-30T07:12:43;102592.50;;;16.16;61.16
37298;BME280;30517;51.932;4.278;2023-09-30T07:15:42;102649.34;;;16.38;61.96
37298;BME280;30517;51.932;4.278;2023-09-30T07:18:42;102656.47;;;16.50;61.29
37298;BME280;30517;51.932;4.278;2023-09-30T07:21:43;102540.94;;;15.79;61.28
37298;BME280;30517;51.932;4.278;2023-09-30T07:24:45;102306.44;;;14.44;61.36
37298;BME280;30517;51.932;4.278;2023-09-30T07:27:45;102667.13;;;16.44;61.07
37298;BME280;30517;51.932;4.278;2023-09-30T07:30:45;102397.94;;;14.96;61.34
37298;BME280;30517;51.932;4.278;2023-09-30T07:33:44;102585.38;;;16.12;61.15
37298;BME280;30517;51.932;4.278;2023-09-30T07:36:44;102658.25;;;16.37;61.92
37298;BME280;30517;51.932;4.278;2023-09-30T07:39:43;102426.28;;;14.99;61.14
37298;BME280;30517;51.932;4.278;2023-09-30T07:42:43;102403.25;;;14.99;61.68
37298;BME280;30517;51.932;4.278;2023-09-30T07:45:43;102597.84;;;16.22;61.58
37298;BME280;30517;51.932;4.278;2023-09-30T07:49:04;102645.84;;;16.48;61.47
37298;BME280;30517;51.932;4.278;2023-09-30T07:52:06;102638.72;;;16.43;61.57
37298;BME280;30517;51.932;4.278;2023-09-30T07:55:06;102624.50;;;16.44;61.44
37298;BME280;30517;51.932;4.278;2023-09-30T07:58:07;102635.16;;;16.44;61.72
37298;BME280;30517;51.932;4.278;2023-09-30T08:01:15;102624.50;;;16.31;61.60
37298;BME280;30517;51.932;4.278;2023-09-30T08:04:19;102405.06;;;15.13;61.86
37298;BME280;30517;51.932;4.278;2023-09-30T08:07:18;102441.50;;;15.44;61.23
37298;BME280;30517;51.932;4.278;2023-09-30T08:10:18;102337.63;;;14.75;61.10
37298;BME280;30517;51.932;4.278;2023-09-30T08:13:17;102397.06;;;15.07;61.64
37298;BME280;30517;51.932;4.278;2023-09-30T08:16:17;102404.13;;;14.97;61.58
37298;BME280;30517;51.932;4.278;2023-09-30T08:19:16;102641.38;;;16.44;61.96
37298;BME280;30517;51.932;4.278;2023-09-30T08:22:17;102361.50;;;14.72;61.74
37298;BME280;30517;51.932;4.278;2023-09-30T08:25:16;102405.91;;;15.02;61.93
37298;BME280;30517;51.932;4.278;2023-09-30T08:28:16;102318.91;;;14.52;61.99
37298;BME280;30517;51.932;4.278;2023-09-30T08:31:15;102562.31;;;16.17;61.34
37298;BME280;30517;51.932;4.278;2023-09-30T08:34:15;102637.84;;;16.53;61.33
37298;BME280;30517;51.932;4.278;2023-09-30T08:37:16;102624.47;;;16.22;61.38
37298;BME280;30517;51.932;4.278;2023-09-30T08:40:20;102648.44;;;16.36;62.00
37298;BME280;30517;51.932;4.278;2023-09-30T08:43:24;102589.75;;;15.90;61.54
37298;BME280;30517;51.932;4.278;2023-09-30T08:46:29;102307.25;;;14.30;61.46
37298;BME280;30517;51.932;4.278;2023-09-30T08:49:29;102553.34;;;15.75;61.80
37298;BME280;30517;51.932;4.278;2023-09-30T08:52:29;102612.03;;;16.21;61.52
37298;BME280;30517;51.932;4.278;2023-09-30T08:55:29;102438.72;;;15.14;61.43
37298;BME280;30517;51.932;4.278;2023-09-30T08:58:32;102570.22;;;15.82;61.13
37298;BME280;30517;51.932;4.278;2023-09-30T09:01:32;102407.47;;;14.60;61.61
37298;BME280;30517;51.932;4.278;2023-09-30T09:04:33;102525.75;;;15.50;61.19
37298;BME280;30517;51.932;4.278;2023-09-30T09:07:33;102573.75;;;15.72;61.84
37298;BME280;30517;51.932;4.278;2023-09-30T09:10:33;102401.34;;;14.69;61.48
37298;BME280;30517;51.932;4.278;2023-09-30T09:13:49;102537.28;;;15.57;61.21
37298;BME280;30517;51.932;4.278;2023-09-30T09:16:54;102458.22;;;15.14;61.36
37298;BME280;30517;51.932;4.278;2023-09-30T09:19:59;102722.22;;;16.63;61.20
37298;BME280;30517;51.932;4.278;2023-09-30T09:22:59;102452.03;;;15.20;60.73
37298;BME280;30517;51.932;4.278;2023-09-30T09:25:59;102588.91;;;15.99;61.05
37298;BME280;30517;51.932;4.278;2023-09-30T09:29:00;102387.22;;;14.84;61.18
37298;BME280;30517;51.932;4.278;2023-09-30T09:32:15;102716.91;;;16.69;61.56
37298;BME280;30517;51.932;4.278;2023-09-30T09:35:19;102717.81;;;16.76;60.80
37298;BME280;30517;51.932;4.278;2023-09-30T09:38:20;102719.63;;;16.81;61.41
37298;BME280;30517;51.932;4.278;2023-09-30T09:41:20;102717.88;;;16.84;61.18
37298;BME280;30517;51.932;4.278;2023-09-30T09:44:20;102721.44;;;16.83;61.28
37298;BME280;30517;51.932;4.278;2023-09-30T09:47:27;102686.69;;;16.53;61.40
37298;BME280;30517;51.932;4.278;2023-09-30T09:50:28;102727.63;;;16.81;61.11
37298;BME280;30517;51.932;4.278;2023-09-30T09:53:30;102493.81;;;15.45;61.09
37298;BME280;30517;51.932;4.278;2023-09-30T09:56:33;102730.31;;;16.86;60.99
37298;BME280;30517;51.932;4.278;2023-09-30T09:59:33;102628.94;;;16.38;61.33
37298;BME280;30517;51.932;4.278;2023-09-30T10:02:33;102548.09;;;15.97;60.93
37298;BME280;30517;51.932;4.278;2023-09-30T10:05:32;102688.53;;;16.90;61.06
37298;BME280;30517;51.932;4.278;2023-09-30T10:08:41;102627.19;;;16.42;61.30
37298;BME280;30517;51.932;4.278;2023-09-30T10:11:42;102681.47;;;16.93;61.15
37298;BME280;30517;51.932;4.278;2023-09-30T10:14:44;102550.81;;;16.24;60.72
37298;BME280;30517;51.932;4.278;2023-09-30T10:18:01;102393.59;;;15.27;61.04
37298;BME280;30517;51.932;4.278;2023-09-30T10:21:10;102695.66;;;17.08;60.45
37298;BME280;30517;51.932;4.278;2023-09-30T10:30:33;102618.38;;;16.86;60.07
37298;BME280;30517;51.932;4.278;2023-09-30T10:33:34;102370.50;;;15.17;60.80
37298;BME280;30517;51.932;4.278;2023-09-30T10:36:36;102695.66;;;17.00;61.02
37298;BME280;30517;51.932;4.278;2023-09-30T10:39:56;102550.78;;;16.17;62.69
37298;BME280;30517;51.932;4.278;2023-09-30T10:42:57;102619.22;;;16.67;62.23
37298;BME280;30517;51.932;4.278;2023-09-30T10:45:56;102573.91;;;16.45;62.01
37298;BME280;30517;51.932;4.278;2023-09-30T10:49:15;102693.91;;;17.20;61.81
37298;BME280;30517;51.932;4.278;2023-09-30T10:52:22;102680.56;;;17.10;62.07
37298;BME280;30517;51.932;4.278;2023-09-30T10:55:23;102675.22;;;16.91;62.25
37298;BME280;30517;51.932;4.278;2023-09-30T10:58:43;102626.31;;;16.72;61.82
37298;BME280;30517;51.932;4.278;2023-09-30T11:01:43;102669.00;;;17.06;61.78
37298;BME280;30517;51.932;4.278;2023-09-30T11:04:46;102667.22;;;17.14;61.30
37298;BME280;30517;51.932;4.278;2023-09-30T11:07:49;102613.94;;;16.96;61.29
37298;BME280;30517;51.932;4.278;2023-09-30T11:10:50;102662.78;;;17.06;61.05
37298;BME280;30517;51.932;4.278;2023-09-30T11:13:50;102632.56;;;16.90;61.42
37298;BME280;30517;51.932;4.278;2023-09-30T11:16:51;102544.59;;;16.60;61.12
37298;BME280;30517;51.932;4.278;2023-09-30T11:19:51;102521.53;;;16.59;60.71
37298;BME280;30517;51.932;4.278;2023-09-30T11:22:51;102652.09;;;17.39;60.69
37298;BME280;30517;51.932;4.278;2023-09-30T11:25:54;102649.44;;;17.29;60.83
37298;BME280;30517;51.932;4.278;2023-09-30T11:28:53;102597.94;;;16.96;61.01
37298;BME280;30517;51.932;4.278;2023-09-30T11:31:54;102404.38;;;16.09;60.59
37298;BME280;30517;51.932;4.278;2023-09-30T11:34:54;102522.41;;;16.69;60.69
37298;BME280;30517;51.932;4.278;2023-09-30T11:37:54;102668.00;;;17.68;60.37
37298;BME280;30517;51.932;4.278;2023-09-30T11:41:06;102625.41;;;17.33;60.97
37298;BME280;30517;51.932;4.278;2023-09-30T11:44:10;102541.03;;;17.06;60.18
37298;BME280;30517;51.932;4.278;2023-09-30T11:47:10;102610.22;;;17.61;59.83
37298;BME280;30517;51.932;4.278;2023-09-30T11:50:13;102635.97;;;17.84;59.62
37298;BME280;30517;51.932;4.278;2023-09-30T11:53:17;102560.44;;;17.56;59.50
37298;BME280;30517;51.932;4.278;2023-09-30T11:56:19;102537.44;;;17.19;60.19
37298;BME280;30517;51.932;4.278;2023-09-30T11:59:19;102478.91;;;16.86;59.76
37298;BME280;30517;51.932;4.278;2023-09-30T12:02:18;102571.13;;;17.56;59.74
37298;BME280;30517;51.932;4.278;2023-09-30T12:05:18;102584.41;;;17.65;59.88
37298;BME280;30517;51.932;4.278;2023-09-30T12:08:24;102589.75;;;17.66;60.04
37298;BME280;30517;51.932;4.278;2023-09-30T12:11:23;102602.16;;;17.86;59.69
37298;BME280;30517;51.932;4.278;2023-09-30T12:14:24;102602.13;;;17.89;59.74
37298;BME280;30517;51.932;4.278;2023-09-30T12:17:23;102648.34;;;18.09;59.82
37298;BME280;30517;51.932;4.278;2023-09-30T12:20:23;102653.63;;;18.20;59.73
37298;BME280;30517;51.932;4.278;2023-09-30T12:23:24;102566.56;;;17.85;59.49
37298;BME280;30517;51.932;4.278;2023-09-30T12:26:23;102636.66;;;18.29;59.34
37298;BME280;30517;51.932;4.278;2023-09-30T12:29:23;102627.78;;;18.21;59.62
37298;BME280;30517;51.932;4.278;2023-09-30T12:32:22;102649.97;;;18.35;59.46
37298;BME280;30517;51.932;4.278;2023-09-30T12:35:22;102639.38;;;18.23;59.64
37298;BME280;30517;51.932;4.278;2023-09-30T12:38:21;102625.06;;;18.31;59.32
37298;BME280;30517;51.932;4.278;2023-09-30T12:41:20;102606.41;;;18.24;59.21
37298;BME280;30517;51.932;4.278;2023-09-30T12:44:20;102602.81;;;18.28;59.00
37298;BME280;30517;51.932;4.278;2023-09-30T12:47:21;102645.38;;;18.58;59.15
37298;BME280;30517;51.932;4.278;2023-09-30T12:50:20;102568.06;;;18.28;58.62
37298;BME280;30517;51.932;4.278;2023-09-30T12:53:20;102554.72;;;18.28;58.48
37298;BME280;30517;51.932;4.278;2023-09-30T12:56:19;102640.81;;;18.74;58.44
37298;BME280;30517;51.932;4.278;2023-09-30T12:59:18;102621.28;;;18.62;58.54
37298;BME280;30517;51.932;4.278;2023-09-30T13:02:19;102602.56;;;18.62;58.04
37298;BME280;30517;51.932;4.278;2023-09-30T13:05:18;102573.25;;;18.52;58.27
37298;BME280;30517;51.932;4.278;2023-09-30T13:08:19;102489.03;;;18.07;58.12
37298;BME280;30517;51.932;4.278;2023-09-30T13:11:18;102620.22;;;18.89;58.15
37298;BME280;30517;51.932;4.278;2023-09-30T13:14:17;102604.22;;;18.83;58.30
37298;BME280;30517;51.932;4.278;2023-09-30T13:17:17;102606.81;;;18.92;58.23
37298;BME280;30517;51.932;4.278;2023-09-30T13:20:16;102573.97;;;18.76;58.10
37298;BME280;30517;51.932;4.278;2023-09-30T13:23:16;102469.34;;;18.19;58.14
37298;BME280;30517;51.932;4.278;2023-09-30T13:26:15;102559.72;;;18.71;58.10
37298;BME280;30517;51.932;4.278;2023-09-30T13:29:18;102595.16;;;18.97;58.16
37298;BME280;30517;51.932;4.278;2023-09-30T13:32:17;102597.81;;;19.00;57.86
37298;BME280;30517;51.932;4.278;2023-09-30T13:35:18;102585.47;;;18.84;57.84
37298;BME280;30517;51.932;4.278;2023-09-30T13:38:17;102618.28;;;19.05;58.00
37298;BME280;30517;51.932;4.278;2023-09-30T13:41:17;102605.94;;;18.91;57.85
37298;BME280;30517;51.932;4.278;2023-09-30T13:44:17;102608.44;;;19.08;57.82
37298;BME280;30517;51.932;4.278;2023-09-30T13:47:17;102596.81;;;19.11;57.80
37298;BME280;30517;51.932;4.278;2023-09-30T13:50:16;102589.72;;;19.08;57.96
37298;BME280;30517;51.932;4.278;2023-09-30T13:53:15;102530.28;;;18.78;57.91
37298;BME280;30517;51.932;4.278;2023-09-30T13:56:15;102533.72;;;18.90;57.97
37298;BME280;30517;51.932;4.278;2023-09-30T13:59:14;102593.16;;;19.21;57.59
37298;BME280;30517;51.932;4.278;2023-09-30T14:02:14;102557.66;;;19.05;57.90
37298;BME280;30517;51.932;4.278;2023-09-30T14:05:13;102467.22;;;18.54;58.05
37298;BME280;30517;51.932;4.278;2023-09-30T14:08:13;102562.09;;;19.08;58.20
37298;BME280;30517;51.932;4.278;2023-09-30T14:11:13;102596.59;;;19.31;58.18
37298;BME280;30517;51.932;4.278;2023-09-30T14:14:12;102601.03;;;19.36;57.90
37298;BME280;30517;51.932;4.278;2023-09-30T14:17:11;102592.97;;;19.39;57.96
37298;BME280;30517;51.932;4.278;2023-09-30T14:20:13;102566.25;;;19.36;57.60
37298;BME280;30517;51.932;4.278;2023-09-30T14:23:12;102568.00;;;19.36;57.60
37298;BME280;30517;51.932;4.278;2023-09-30T14:26:12;102523.69;;;19.15;57.50
37298;BME280;30517;51.932;4.278;2023-09-30T14:29:11;102592.84;;;19.50;57.89
37298;BME280;30517;51.932;4.278;2023-09-30T14:32:11;102535.19;;;19.21;57.37
37298;BME280;30517;51.932;4.278;2023-09-30T14:35:11;102563.41;;;19.50;57.77
37298;BME280;30517;51.932;4.278;2023-09-30T14:38:13;102585.53;;;19.66;57.09
37298;BME280;30517;51.932;4.278;2023-09-30T14:41:13;102556.34;;;19.43;57.51
37298;BME280;30517;51.932;4.278;2023-09-30T14:44:12;102584.59;;;19.72;57.17
37298;BME280;30517;51.932;4.278;2023-09-30T14:47:12;102426.00;;;18.83;57.06
37298;BME280;30517;51.932;4.278;2023-09-30T14:50:11;102561.44;;;19.66;57.16
37298;BME280;30517;51.932;4.278;2023-09-30T14:53:11;102581.78;;;19.79;57.38
37298;BME280;30517;51.932;4.278;2023-09-30T14:56:17;102579.09;;;19.81;57.44
37298;BME280;30517;51.932;4.278;2023-09-30T14:59:17;102538.25;;;19.62;56.93
37298;BME280;30517;51.932;4.278;2023-09-30T15:02:16;102547.09;;;19.72;56.80
37298;BME280;30517;51.932;4.278;2023-09-30T15:05:16;102551.38;;;19.85;56.98
37298;BME280;30517;51.932;4.278;2023-09-30T15:08:15;102514.16;;;19.63;57.07
37298;BME280;30517;51.932;4.278;2023-09-30T15:11:15;102566.38;;;19.98;56.81
37298;BME280;30517;51.932;4.278;2023-09-30T15:14:14;102516.63;;;19.80;57.04
37298;BME280;30517;51.932;4.278;2023-09-30T15:17:14;102554.66;;;20.05;56.65
37298;BME280;30517;51.932;4.278;2023-09-30T15:20:13;102456.44;;;19.41;56.95
37298;BME280;30517;51.932;4.278;2023-09-30T15:23:13;102552.78;;;20.12;56.82
37298;BME280;30517;51.932;4.278;2023-09-30T15:26:13;102542.06;;;20.12;56.66
37298;BME280;30517;51.932;4.278;2023-09-30T15:29:14;102542.94;;;20.11;56.49
37298;BME280;30517;51.932;4.278;2023-09-30T15:32:14;102503.97;;;19.92;56.94
37298;BME280;30517;51.932;4.278;2023-09-30T15:35:14;102535.72;;;20.18;56.38
37298;BME280;30517;51.932;4.278;2023-09-30T15:38:13;102534.75;;;20.22;56.46
37298;BME280;30517;51.932;4.278;2023-09-30T15:41:13;102458.59;;;19.81;56.19
37298;BME280;30517;51.932;4.278;2023-09-30T15:44:13;102498.38;;;20.07;56.32
37298;BME280;30517;51.932;4.278;2023-09-30T15:47:13;102496.53;;;20.10;56.29
37298;BME280;30517;51.932;4.278;2023-09-30T15:50:12;102521.34;;;20.23;56.43